createdAt,value
2019-06-01T00:00:11.620Z,97.50
2019-06-01T00:02:35.946Z,97.50
2019-06-01T00:05:06.470Z,97.30
2019-06-01T00:07:35.088Z,96.80
2019-06-01T00:10:04.901Z,97.60
2019-06-01T00:12:33.408Z,97.80
2019-06-01T00:15:02.088Z,96.50
2019-06-01T00:17:30.627Z,97.20
2019-06-01T00:19:59.252Z,97.80
2019-06-01T00:22:27.798Z,96.50
2019-06-01T00:24:56.302Z,98.20
2019-06-01T00:27:24.779Z,97.40
2019-06-01T00:29:53.277Z,97.30
2019-06-01T00:32:21.822Z,97.40
2019-06-01T00:34:50.336Z,97.50
2019-06-01T00:37:18.886Z,97.10
2019-06-01T00:39:47.878Z,98.00
2019-06-01T00:42:16.432Z,97.00
2019-06-01T00:44:46.217Z,96.70
2019-06-01T00:47:14.879Z,97.50
2019-06-01T00:49:44.497Z,97.60
2019-06-01T00:52:13.318Z,97.30
2019-06-01T00:54:43.091Z,98.00
2019-06-01T00:57:11.946Z,98.20
2019-06-01T00:59:40.445Z,97.80
2019-06-01T01:02:08.935Z,98.20
2019-06-01T01:04:37.544Z,98.00
2019-06-01T01:07:06.093Z,98.50
2019-06-01T01:09:34.681Z,97.70
2019-06-01T01:12:03.167Z,98.00
2019-06-01T01:14:31.740Z,97.10
2019-06-01T01:17:00.230Z,98.30
2019-06-01T01:19:28.765Z,97.80
2019-06-01T01:21:58.675Z,97.50
2019-06-01T01:24:27.237Z,97.70
2019-06-01T01:26:56.788Z,98.10
2019-06-01T01:29:25.400Z,98.70
2019-06-01T01:31:53.943Z,98.20
2019-06-01T01:34:22.451Z,98.50
2019-06-01T01:36:52.530Z,98.70
2019-06-01T01:39:21.150Z,98.20
2019-06-01T01:41:50.022Z,97.60
2019-06-01T01:44:18.529Z,97.40
2019-06-01T01:46:47.092Z,97.70
2019-06-01T01:49:15.663Z,97.20
2019-06-01T01:51:44.170Z,97.00
2019-06-01T01:54:12.728Z,97.80
2019-06-01T01:56:41.317Z,98.00
2019-06-01T01:59:09.852Z,97.50
2019-06-01T02:01:38.460Z,96.30
2019-06-01T02:04:07.018Z,97.50
2019-06-01T02:06:35.595Z,97.00
2019-06-01T02:09:06.923Z,97.80
2019-06-01T02:11:35.428Z,96.60
2019-06-01T02:14:04.047Z,96.80
2019-06-01T02:16:32.618Z,96.70
2019-06-01T02:19:02.345Z,98.00
2019-06-01T02:21:31.092Z,96.70
2019-06-01T02:24:01.060Z,97.00
2019-06-01T02:26:29.867Z,96.70
2019-06-01T02:28:59.479Z,96.90
2019-06-01T02:31:40.498Z,96.40
2019-06-01T02:33:59.231Z,96.90
2019-06-01T02:36:28.675Z,97.60
2019-06-01T02:38:58.565Z,97.70
2019-06-01T02:41:27.589Z,98.10
2019-06-01T02:43:57.295Z,97.60
2019-06-01T02:46:26.439Z,97.60
2019-06-01T02:48:55.457Z,97.50
2019-06-01T02:51:24.145Z,97.10
2019-06-01T02:53:52.715Z,96.80
2019-06-01T02:56:21.209Z,97.10
2019-06-01T02:58:49.692Z,97.20
2019-06-01T03:01:37.949Z,97.20
2019-06-01T03:04:09.241Z,96.80
2019-06-01T03:06:40.041Z,96.60
2019-06-01T03:09:09.329Z,96.90
2019-06-01T03:11:39.417Z,97.80
2019-06-01T03:14:14.100Z,96.80
2019-06-01T03:16:43.376Z,96.70
2019-06-01T03:19:13.466Z,96.70
2019-06-01T03:21:43.930Z,96.80
2019-06-01T03:24:13.408Z,96.90
2019-06-01T03:26:44.987Z,96.70
2019-06-01T03:29:18.628Z,96.80
2019-06-01T03:31:47.201Z,98.00
2019-06-01T03:34:15.979Z,97.20
2019-06-01T03:36:44.578Z,97.40
2019-06-01T03:39:13.242Z,97.00
2019-06-01T03:41:42.433Z,97.80
2019-06-01T03:44:11.096Z,98.30
2019-06-01T03:46:39.691Z,98.30
2019-06-01T03:49:08.240Z,97.00
2019-06-01T03:51:36.748Z,97.50
2019-06-01T03:54:06.848Z,97.80
2019-06-01T03:56:35.592Z,98.20
2019-06-01T03:59:05.090Z,98.30
2019-06-01T04:01:33.748Z,98.30
2019-06-01T04:04:03.066Z,99.20
2019-06-01T04:06:31.684Z,99.30
2019-06-01T04:09:01.440Z,98.60
2019-06-01T04:11:30.250Z,98.10
2019-06-01T04:13:58.774Z,99.20
2019-06-01T04:16:27.298Z,98.50
2019-06-01T04:18:55.838Z,97.70
2019-06-01T04:21:24.355Z,97.60
2019-06-01T04:23:52.837Z,98.00
2019-06-01T04:26:21.421Z,98.10
2019-06-01T04:28:50.094Z,97.60
2019-06-01T04:31:18.688Z,97.60
2019-06-01T04:33:47.239Z,97.20
2019-06-01T04:36:15.821Z,97.60
2019-06-01T04:38:44.294Z,97.10
2019-06-01T04:41:14.121Z,97.30
2019-06-01T04:43:42.885Z,97.30
2019-06-01T04:46:12.362Z,97.60
2019-06-01T04:48:41.036Z,97.90
2019-06-01T04:51:11.418Z,97.20
2019-06-01T04:53:39.830Z,97.30
2019-06-01T04:56:08.998Z,97.20
2019-06-01T04:58:37.769Z,97.10
2019-06-01T05:01:06.891Z,97.20
2019-06-01T05:03:35.640Z,97.20
2019-06-01T05:06:05.043Z,97.20
2019-06-01T05:08:33.901Z,97.20
2019-06-01T05:11:05.384Z,97.50
2019-06-01T05:13:32.639Z,96.80
2019-06-01T05:16:01.148Z,96.80
2019-06-01T05:18:29.890Z,96.70
2019-06-01T05:21:01.421Z,96.40
2019-06-01T05:23:29.979Z,96.60
2019-06-01T05:25:58.497Z,96.30
2019-06-01T05:28:26.986Z,96.40
2019-06-01T05:30:55.589Z,97.30
2019-06-01T05:33:36.477Z,96.30
2019-06-01T05:35:54.335Z,97.30
2019-06-01T05:38:22.926Z,96.20
2019-06-01T05:40:51.474Z,96.50
2019-06-01T05:43:21.351Z,96.20
2019-06-01T05:45:50.033Z,96.00
2019-06-01T05:48:25.028Z,96.30
2019-06-01T05:50:48.797Z,95.90
2019-06-01T05:53:17.321Z,96.10
2019-06-01T05:55:45.848Z,96.00
2019-06-01T05:58:15.115Z,95.70
2019-06-01T06:00:45.186Z,95.60
2019-06-01T06:03:16.069Z,96.10
2019-06-01T06:05:44.091Z,96.00
2019-06-01T06:08:13.146Z,95.70
2019-06-01T06:10:42.992Z,95.60
2019-06-01T06:13:11.585Z,96.00
2019-06-01T06:15:40.138Z,95.30
2019-06-01T06:18:08.652Z,95.30
2019-06-01T06:20:37.167Z,95.80
2019-06-01T06:23:05.707Z,95.50
2019-06-01T06:25:36.591Z,95.80
2019-06-01T06:28:04.456Z,95.50
2019-06-01T06:30:32.944Z,95.50
2019-06-01T06:33:01.484Z,95.40
2019-06-01T06:35:30.051Z,95.60
2019-06-01T06:37:58.646Z,95.40
2019-06-01T06:40:27.209Z,95.40
2019-06-01T06:42:55.797Z,94.90
2019-06-01T06:45:24.966Z,94.60
2019-06-01T06:47:53.675Z,94.30
2019-06-01T06:50:23.454Z,94.40
2019-06-01T06:52:52.118Z,94.50
2019-06-01T06:55:21.898Z,94.60
2019-06-01T06:57:50.660Z,94.20
2019-06-01T07:00:20.513Z,93.50
2019-06-01T07:02:49.426Z,93.50
2019-06-01T07:05:19.335Z,92.30
2019-06-01T07:07:47.968Z,92.00
2019-06-01T07:10:17.898Z,91.40
2019-06-01T07:12:46.702Z,91.20
2019-06-01T07:15:15.379Z,90.10
2019-06-01T07:17:43.991Z,88.90
2019-06-01T07:20:12.782Z,86.50
2019-06-01T07:22:41.433Z,86.90
2019-06-01T07:25:11.595Z,85.80
2019-06-01T07:27:40.226Z,87.30
2019-06-01T07:30:08.946Z,84.90
2019-06-01T07:32:37.518Z,83.30
2019-06-01T07:35:09.361Z,82.10
2019-06-01T07:37:37.881Z,83.70
2019-06-01T07:40:12.938Z,80.00
2019-06-01T07:42:37.855Z,76.60
2019-06-01T07:45:06.999Z,74.40
2019-06-01T07:47:35.566Z,74.90
2019-06-01T07:50:06.930Z,74.50
2019-06-01T07:52:35.458Z,71.40
2019-06-01T07:55:05.169Z,71.50
2019-06-01T07:57:33.758Z,70.30
2019-06-01T08:00:02.283Z,66.30
2019-06-01T08:02:30.924Z,67.80
2019-06-01T08:04:59.519Z,65.80
2019-06-01T08:07:29.257Z,66.20
2019-06-01T08:09:58.019Z,63.00
2019-06-01T08:12:27.495Z,62.40
2019-06-01T08:14:56.152Z,61.60
2019-06-01T08:17:25.989Z,60.30
2019-06-01T08:19:54.759Z,59.00
2019-06-01T08:22:23.850Z,59.50
2019-06-01T08:24:52.526Z,57.00
2019-06-01T08:27:22.303Z,58.50
2019-06-01T08:29:50.935Z,58.60
2019-06-01T08:32:19.521Z,59.10
2019-06-01T08:34:48.082Z,58.80
2019-06-01T08:37:16.555Z,57.60
2019-06-01T08:39:45.163Z,56.50
2019-06-01T08:42:13.719Z,57.10
2019-06-01T08:44:42.323Z,56.20
2019-06-01T08:47:10.876Z,55.30
2019-06-01T08:49:39.469Z,53.60
2019-06-01T08:52:07.974Z,56.80
2019-06-01T08:54:36.593Z,54.10
2019-06-01T08:57:05.114Z,53.60
2019-06-01T08:59:34.617Z,53.90
2019-06-01T09:02:03.370Z,51.80
2019-06-01T09:04:32.813Z,51.60
2019-06-01T09:07:01.477Z,50.70
2019-06-01T09:09:30.998Z,50.10
2019-06-01T09:11:59.667Z,51.80
2019-06-01T09:14:29.177Z,50.10
2019-06-01T09:16:57.885Z,50.90
2019-06-01T09:19:27.328Z,49.50
2019-06-01T09:21:55.964Z,49.00
2019-06-01T09:24:25.770Z,48.20
2019-06-01T09:26:54.413Z,47.60
2019-06-01T09:29:22.940Z,46.40
2019-06-01T09:31:51.522Z,48.10
2019-06-01T09:34:20.152Z,44.50
2019-06-01T09:36:48.731Z,44.60
2019-06-01T09:39:17.320Z,43.50
2019-06-01T09:41:45.871Z,42.00
2019-06-01T09:44:14.379Z,41.50
2019-06-01T09:46:42.943Z,42.40
2019-06-01T09:49:14.382Z,42.00
2019-06-01T09:51:43.370Z,43.20
2019-06-01T09:54:11.898Z,41.80
2019-06-01T09:56:40.525Z,40.80
2019-06-01T09:59:09.140Z,40.80
2019-06-01T10:01:38.910Z,42.80
2019-06-01T10:04:09.299Z,41.60
2019-06-01T10:06:38.700Z,39.40
2019-06-01T10:09:09.131Z,40.50
2019-06-01T10:11:38.128Z,41.80
2019-06-01T10:14:09.386Z,39.00
2019-06-01T10:16:38.914Z,39.20
2019-06-01T10:19:07.783Z,39.90
2019-06-01T10:21:36.348Z,37.90
2019-06-01T10:24:05.108Z,36.80
2019-06-01T10:26:34.358Z,36.80
2019-06-01T10:29:04.086Z,36.30
2019-06-01T10:31:32.675Z,34.90
2019-06-01T10:34:01.320Z,34.80
2019-06-01T10:36:30.070Z,34.90
2019-06-01T10:38:58.650Z,33.60
2019-06-01T10:41:27.282Z,32.50
2019-06-01T10:43:55.934Z,31.70
2019-06-01T10:46:24.447Z,31.40
2019-06-01T10:48:53.016Z,31.90
2019-06-01T10:51:21.605Z,32.80
2019-06-01T10:53:50.161Z,30.60
2019-06-01T10:56:18.665Z,29.90
2019-06-01T10:58:59.206Z,28.60
2019-06-01T11:01:17.540Z,29.60
2019-06-01T11:03:46.067Z,30.00
2019-06-01T11:06:16.059Z,32.20
2019-06-01T11:08:44.627Z,33.30
2019-06-01T11:11:13.172Z,34.40
2019-06-01T11:13:41.655Z,35.50
2019-06-01T11:16:10.322Z,35.00
2019-06-01T11:18:39.623Z,33.00
2019-06-01T11:21:08.376Z,33.70
2019-06-01T11:23:42.630Z,34.50
2019-06-01T11:26:08.766Z,36.00
2019-06-01T11:28:38.252Z,35.70
2019-06-01T11:31:06.935Z,35.20
2019-06-01T11:33:36.005Z,36.00
2019-06-01T11:36:04.756Z,37.60
2019-06-01T11:38:52.628Z,37.70
2019-06-01T11:41:21.207Z,37.40
2019-06-01T11:43:49.778Z,37.10
2019-06-01T11:46:18.348Z,38.40
2019-06-01T11:48:46.881Z,38.70
2019-06-01T11:51:15.398Z,39.20
2019-06-01T11:53:45.253Z,38.00
2019-06-01T11:56:14.332Z,37.30
2019-06-01T11:58:43.425Z,38.70
2019-06-01T12:01:12.083Z,38.10
2019-06-01T12:03:41.724Z,38.60
2019-06-01T12:06:10.448Z,37.30
2019-06-01T12:08:39.969Z,38.00
2019-06-01T12:11:08.646Z,38.50
2019-06-01T12:13:38.111Z,38.30
2019-06-01T12:16:06.709Z,38.60
2019-06-01T12:18:36.357Z,37.90
2019-06-01T12:21:05.048Z,37.50
2019-06-01T12:23:33.635Z,39.00
2019-06-01T12:26:02.213Z,38.70
2019-06-01T12:28:30.785Z,39.10
2019-06-01T12:30:59.375Z,38.10
2019-06-01T12:33:27.935Z,38.40
2019-06-01T12:35:56.460Z,38.80
2019-06-01T12:38:25.032Z,39.20
2019-06-01T12:40:53.616Z,38.00
2019-06-01T12:43:22.180Z,38.30
2019-06-01T12:46:06.360Z,38.20
2019-06-01T12:48:20.980Z,38.60
2019-06-01T12:50:52.513Z,38.60
2019-06-01T12:53:21.193Z,39.70
2019-06-01T12:55:49.960Z,39.50
2019-06-01T12:58:18.506Z,38.60
2019-06-01T13:00:48.272Z,38.30
2019-06-01T13:03:16.972Z,38.20
2019-06-01T13:05:45.723Z,39.80
2019-06-01T13:08:14.243Z,39.50
2019-06-01T13:10:43.082Z,40.30
2019-06-01T13:13:11.789Z,40.20
2019-06-01T13:15:43.226Z,40.60
2019-06-01T13:18:11.884Z,40.00
2019-06-01T13:20:41.395Z,40.40
2019-06-01T13:23:10.036Z,40.50
2019-06-01T13:25:38.612Z,40.20
2019-06-01T13:28:07.324Z,40.20
2019-06-01T13:30:35.980Z,39.70
2019-06-01T13:33:06.229Z,39.70
2019-06-01T13:35:34.828Z,39.80
2019-06-01T13:38:11.544Z,40.80
2019-06-01T13:40:33.692Z,40.30
2019-06-01T13:43:02.499Z,40.40
2019-06-01T13:45:31.180Z,40.30
2019-06-01T13:47:59.721Z,39.80
2019-06-01T13:50:28.295Z,40.30
2019-06-01T13:52:56.880Z,40.20
2019-06-01T13:55:27.452Z,40.60
2019-06-01T13:57:55.714Z,41.30
2019-06-01T14:00:30.257Z,40.70
2019-06-01T14:02:57.445Z,40.50
2019-06-01T14:05:24.891Z,40.00
2019-06-01T14:07:53.612Z,40.40
2019-06-01T14:10:22.237Z,40.10
2019-06-01T14:12:51.469Z,39.50
2019-06-01T14:15:20.239Z,39.50
2019-06-01T14:17:50.185Z,39.90
2019-06-01T14:20:18.809Z,39.80
2019-06-01T14:22:47.672Z,40.00
2019-06-01T14:25:16.996Z,40.80
2019-06-01T14:27:46.090Z,40.70
2019-06-01T14:30:14.947Z,40.60
2019-06-01T14:32:43.517Z,39.90
2019-06-01T14:35:12.163Z,40.00
2019-06-01T14:37:40.658Z,40.10
2019-06-01T14:40:09.495Z,40.20
2019-06-01T14:42:38.086Z,40.60
2019-06-01T14:45:08.322Z,40.60
2019-06-01T14:47:36.846Z,40.20
2019-06-01T14:50:07.771Z,40.50
2019-06-01T14:52:36.353Z,40.40
2019-06-01T14:55:09.047Z,40.60
2019-06-01T14:57:37.587Z,40.50
2019-06-01T15:00:08.889Z,40.20
2019-06-01T15:02:37.505Z,40.80
2019-06-01T15:05:07.875Z,41.30
2019-06-01T15:07:36.420Z,41.30
2019-06-01T15:10:10.339Z,41.60
2019-06-01T15:12:38.877Z,41.80
2019-06-01T15:15:09.544Z,41.90
2019-06-01T15:17:38.110Z,42.10
2019-06-01T15:20:09.787Z,42.20
2019-06-01T15:22:38.339Z,42.10
2019-06-01T15:25:07.961Z,42.40
2019-06-01T15:27:36.559Z,42.10
2019-06-01T15:30:09.967Z,42.30
2019-06-01T15:32:38.695Z,42.30
2019-06-01T15:35:11.010Z,42.60
2019-06-01T15:37:39.594Z,42.70
2019-06-01T15:40:10.323Z,42.90
2019-06-01T15:42:38.904Z,42.90
2019-06-01T15:45:08.609Z,43.00
2019-06-01T15:47:37.202Z,43.30
2019-06-01T15:50:09.716Z,43.50
2019-06-01T15:52:38.372Z,43.20
2019-06-01T15:55:08.364Z,42.90
2019-06-01T15:57:36.965Z,42.60
2019-06-01T16:00:09.873Z,42.60
2019-06-01T16:02:38.549Z,43.50
2019-06-01T16:05:07.720Z,43.00
2019-06-01T16:07:36.315Z,43.20
2019-06-01T16:10:08.237Z,42.90
2019-06-01T16:12:36.885Z,42.90
2019-06-01T16:15:07.811Z,42.90
2019-06-01T16:17:36.329Z,43.10
2019-06-01T16:20:09.228Z,42.70
2019-06-01T16:22:37.727Z,43.30
2019-06-01T16:25:09.404Z,43.10
2019-06-01T16:27:37.960Z,43.20
2019-06-01T16:30:07.357Z,43.50
2019-06-01T16:32:39.228Z,43.50
2019-06-01T16:35:07.563Z,44.30
2019-06-01T16:37:36.178Z,44.00
2019-06-01T16:40:09.931Z,43.90
2019-06-01T16:42:36.602Z,44.40
2019-06-01T16:45:07.302Z,43.80
2019-06-01T16:47:37.457Z,43.90
2019-06-01T16:50:09.979Z,44.00
2019-06-01T16:52:38.584Z,44.30
2019-06-01T16:55:08.792Z,43.40
2019-06-01T16:57:37.357Z,43.20
2019-06-01T17:00:07.983Z,43.40
2019-06-01T17:02:36.565Z,43.10
2019-06-01T17:05:07.170Z,43.30
2019-06-01T17:07:35.888Z,42.70
2019-06-01T17:10:21.675Z,42.20
2019-06-01T17:12:37.305Z,42.10
2019-06-01T17:15:10.584Z,41.80
2019-06-01T17:17:41.056Z,41.80
2019-06-01T17:20:35.017Z,41.70
2019-06-01T17:23:20.876Z,42.00
2019-06-01T17:25:33.879Z,42.60
2019-06-01T17:28:03.138Z,42.70
2019-06-01T17:30:31.747Z,43.00
2019-06-01T17:33:00.338Z,43.50
2019-06-01T17:35:28.828Z,43.40
2019-06-01T17:37:58.675Z,44.30
2019-06-01T17:40:36.727Z,43.90
2019-06-01T17:42:57.624Z,44.10
2019-06-01T17:45:26.245Z,44.00
2019-06-01T17:47:54.874Z,44.60
2019-06-01T17:50:23.893Z,44.30
2019-06-01T17:52:53.479Z,44.10
2019-06-01T17:55:36.396Z,44.60
2019-06-01T17:58:07.693Z,44.50
2019-06-01T18:00:36.841Z,44.80
2019-06-01T18:03:07.810Z,45.00
2019-06-01T18:05:37.024Z,45.30
2019-06-01T18:08:06.163Z,45.30
2019-06-01T18:10:50.228Z,45.60
2019-06-01T18:13:06.773Z,46.80
2019-06-01T18:15:35.267Z,46.00
2019-06-01T18:18:05.962Z,46.70
2019-06-01T18:20:35.906Z,46.00
2019-06-01T18:23:07.218Z,46.10
2019-06-01T18:25:35.304Z,46.10
2019-06-01T18:28:04.508Z,46.90
2019-06-01T18:30:33.328Z,46.60
2019-06-01T18:33:02.962Z,46.30
2019-06-01T18:35:32.512Z,46.40
2019-06-01T18:38:01.196Z,46.60
2019-06-01T18:40:29.773Z,47.50
2019-06-01T18:43:01.415Z,47.00
2019-06-01T18:45:29.996Z,47.70
2019-06-01T18:47:58.676Z,47.20
2019-06-01T18:50:27.297Z,47.50
2019-06-01T18:52:55.899Z,47.50
2019-06-01T18:55:27.545Z,48.00
2019-06-01T18:57:58.030Z,47.60
2019-06-01T19:00:26.640Z,48.20
2019-06-01T19:02:55.304Z,48.70
2019-06-01T19:05:24.171Z,48.80
2019-06-01T19:07:52.792Z,48.60
2019-06-01T19:10:21.511Z,48.80
2019-06-01T19:12:51.479Z,50.40
2019-06-01T19:15:28.530Z,48.60
2019-06-01T19:17:53.776Z,49.50
2019-06-01T19:20:22.409Z,49.60
2019-06-01T19:22:54.172Z,50.00
2019-06-01T19:25:24.229Z,49.20
2019-06-01T19:27:52.861Z,49.30
2019-06-01T19:30:41.169Z,50.10
2019-06-01T19:33:13.415Z,50.60
2019-06-01T19:35:40.478Z,50.30
2019-06-01T19:38:09.259Z,50.50
2019-06-01T19:40:39.375Z,51.40
2019-06-01T19:43:10.263Z,53.20
2019-06-01T19:45:41.762Z,51.40
2019-06-01T19:48:12.309Z,52.10
2019-06-01T19:50:41.185Z,52.00
2019-06-01T19:53:10.593Z,53.00
2019-06-01T19:55:39.277Z,52.40
2019-06-01T19:58:09.988Z,52.90
2019-06-01T20:00:38.920Z,52.40
2019-06-01T20:03:07.571Z,52.60
2019-06-01T20:05:37.501Z,54.70
2019-06-01T20:08:07.616Z,53.40
2019-06-01T20:10:36.627Z,53.50
2019-06-01T20:13:06.780Z,54.10
2019-06-01T20:15:35.518Z,54.90
2019-06-01T20:18:04.268Z,55.30
2019-06-01T20:20:32.900Z,57.70
2019-06-01T20:23:03.134Z,59.00
2019-06-01T20:25:32.119Z,57.40
2019-06-01T20:28:02.257Z,58.00
2019-06-01T20:30:31.107Z,57.50
2019-06-01T20:32:59.823Z,58.90
2019-06-01T20:35:28.629Z,59.80
2019-06-01T20:37:57.323Z,60.70
2019-06-01T20:40:26.015Z,61.10
2019-06-01T20:42:54.621Z,62.20
2019-06-01T20:45:23.326Z,61.90
2019-06-01T20:47:52.066Z,63.30
2019-06-01T20:50:20.898Z,64.00
2019-06-01T20:52:51.312Z,64.90
2019-06-01T20:55:21.136Z,64.70
2019-06-01T20:57:49.867Z,62.30
2019-06-01T21:00:19.764Z,63.80
2019-06-01T21:02:48.784Z,63.80
2019-06-01T21:05:17.923Z,62.80
2019-06-01T21:07:47.000Z,63.70
2019-06-01T21:10:16.319Z,63.30
2019-06-01T21:12:46.015Z,64.50
2019-06-01T21:15:15.246Z,64.90
2019-06-01T21:17:43.861Z,64.90
2019-06-01T21:20:18.748Z,66.80
2019-06-01T21:22:43.269Z,67.70
2019-06-01T21:25:12.769Z,68.50
2019-06-01T21:27:41.701Z,69.20
2019-06-01T21:30:10.594Z,69.30
2019-06-01T21:32:39.198Z,70.10
2019-06-01T21:35:07.938Z,71.40
2019-06-01T21:37:36.605Z,69.60
2019-06-01T21:40:07.023Z,69.00
2019-06-01T21:42:38.419Z,68.90
2019-06-01T21:45:07.263Z,68.20
2019-06-01T21:47:35.942Z,70.30
2019-06-01T21:50:06.744Z,70.60
2019-06-01T21:52:35.329Z,71.00
2019-06-01T21:55:06.429Z,72.20
2019-06-01T21:57:34.954Z,72.80
2019-06-01T22:00:05.344Z,71.70
2019-06-01T22:02:33.943Z,71.00
2019-06-01T22:05:02.586Z,72.30
2019-06-01T22:07:31.116Z,71.90
2019-06-01T22:09:59.642Z,71.10
2019-06-01T22:12:28.204Z,73.60
2019-06-01T22:14:56.714Z,74.60
2019-06-01T22:17:25.845Z,72.20
2019-06-01T22:19:54.496Z,73.30
2019-06-01T22:22:23.817Z,76.00
2019-06-01T22:24:52.501Z,76.80
2019-06-01T22:27:22.167Z,75.90
2019-06-01T22:29:50.777Z,78.30
2019-06-01T22:32:22.993Z,78.10
2019-06-01T22:34:49.582Z,76.60
2019-06-01T22:37:21.631Z,78.20
2019-06-01T22:39:50.585Z,76.70
2019-06-01T22:42:19.837Z,75.30
2019-06-01T22:44:48.486Z,78.00
2019-06-01T22:47:17.079Z,77.50
2019-06-01T22:49:45.590Z,78.40
2019-06-01T22:52:14.335Z,77.40
2019-06-01T22:54:43.000Z,77.20
2019-06-01T22:57:11.596Z,77.40
2019-06-01T22:59:40.150Z,79.90
2019-06-01T23:02:08.676Z,77.60
2019-06-01T23:04:37.251Z,79.70
2019-06-01T23:07:05.848Z,77.00
2019-06-01T23:09:34.403Z,79.30
2019-06-01T23:12:02.967Z,79.30
2019-06-01T23:14:31.517Z,80.10
2019-06-01T23:17:00.058Z,80.80
2019-06-01T23:19:29.837Z,78.50
2019-06-01T23:21:58.635Z,80.90
2019-06-01T23:24:28.204Z,81.10
2019-06-01T23:26:56.798Z,81.50
2019-06-01T23:29:26.103Z,81.50
2019-06-01T23:31:54.710Z,81.20
2019-06-01T23:34:24.958Z,85.20
2019-06-01T23:36:53.606Z,83.70
2019-06-01T23:39:22.685Z,83.60
2019-06-01T23:41:51.465Z,83.00
2019-06-01T23:44:20.034Z,84.20
2019-06-01T23:46:48.590Z,83.30
2019-06-01T23:49:17.168Z,83.90
2019-06-01T23:51:45.750Z,84.40
2019-06-01T23:54:14.346Z,84.70
2019-06-01T23:56:44.026Z,84.70
2019-06-01T23:59:12.628Z,84.60
